createdAt,value
2023-04-27T00:00:29.287Z,508.00
2023-04-27T00:01:29.252Z,507.00
2023-04-27T00:02:29.339Z,507.00
2023-04-27T00:03:29.359Z,506.00
2023-04-27T00:04:29.489Z,503.00
2023-04-27T00:05:29.305Z,500.00
2023-04-27T00:06:29.169Z,500.00
2023-04-27T00:07:29.161Z,500.00
2023-04-27T00:08:29.156Z,498.00
2023-04-27T00:09:29.178Z,499.00
2023-04-27T00:10:29.168Z,498.00
2023-04-27T00:11:29.204Z,497.00
2023-04-27T00:12:29.253Z,496.00
2023-04-27T00:13:29.295Z,498.00
2023-04-27T00:14:29.294Z,500.00
2023-04-27T00:15:29.296Z,501.00
2023-04-27T00:16:29.336Z,501.00
2023-04-27T00:17:29.301Z,501.00
2023-04-27T00:18:29.250Z,501.00
2023-04-27T00:19:29.244Z,499.00
2023-04-27T00:20:29.226Z,496.00
2023-04-27T00:21:29.220Z,497.00
2023-04-27T00:22:29.210Z,498.00
2023-04-27T00:23:29.200Z,499.00
2023-04-27T00:24:29.193Z,498.00
2023-04-27T00:25:29.238Z,494.00
2023-04-27T00:26:29.224Z,493.00
2023-04-27T00:27:29.235Z,492.00
2023-04-27T00:28:29.197Z,493.00
2023-04-27T00:29:29.195Z,491.00
2023-04-27T00:30:29.181Z,490.00
2023-04-27T00:31:29.228Z,493.00
2023-04-27T00:32:29.183Z,493.00
2023-04-27T00:33:29.148Z,494.00
2023-04-27T00:34:29.170Z,494.00
2023-04-27T00:35:29.163Z,492.00
2023-04-27T00:36:29.208Z,493.00
2023-04-27T00:37:29.263Z,495.00
2023-04-27T00:38:29.329Z,493.00
2023-04-27T00:39:29.387Z,491.00
2023-04-27T00:40:29.438Z,489.00
2023-04-27T00:41:29.490Z,489.00
2023-04-27T00:42:29.562Z,488.00
2023-04-27T00:43:29.611Z,487.00
2023-04-27T00:44:29.659Z,487.00
2023-04-27T00:45:29.726Z,483.00
2023-04-27T00:46:29.810Z,484.00
2023-04-27T00:47:29.874Z,484.00
2023-04-27T00:48:29.880Z,485.00
2023-04-27T00:49:29.936Z,486.00
2023-04-27T00:50:30.010Z,488.00
2023-04-27T00:51:30.050Z,489.00
2023-04-27T00:52:30.112Z,491.00
2023-04-27T00:53:30.160Z,492.00
2023-04-27T00:54:30.231Z,492.00
2023-04-27T00:55:30.296Z,491.00
2023-04-27T00:56:30.336Z,491.00
2023-04-27T00:57:30.404Z,492.00
2023-04-27T00:58:30.462Z,493.00
2023-04-27T00:59:30.504Z,495.00
2023-04-27T01:00:30.585Z,492.00
2023-04-27T01:01:30.637Z,491.00
2023-04-27T01:02:30.858Z,490.00
2023-04-27T01:03:30.785Z,489.00
2023-04-27T01:04:30.952Z,494.00
2023-04-27T01:05:32.597Z,495.00
2023-04-27T01:06:30.894Z,496.00
2023-04-27T01:07:30.966Z,495.00
2023-04-27T01:08:30.998Z,494.00
2023-04-27T01:09:31.064Z,492.00
2023-04-27T01:10:31.125Z,492.00
2023-04-27T01:11:31.172Z,490.00
2023-04-27T01:12:31.237Z,491.00
2023-04-27T01:13:31.284Z,490.00
2023-04-27T01:14:31.346Z,488.00
2023-04-27T01:15:31.384Z,490.00
2023-04-27T01:16:31.397Z,491.00
2023-04-27T01:17:31.393Z,490.00
2023-04-27T01:18:31.350Z,490.00
2023-04-27T01:19:31.341Z,488.00
2023-04-27T01:20:31.358Z,486.00
2023-04-27T01:21:31.327Z,486.00
2023-04-27T01:22:31.324Z,484.00
2023-04-27T01:23:31.322Z,483.00
2023-04-27T01:24:31.301Z,483.00
2023-04-27T01:25:31.292Z,481.00
2023-04-27T01:26:31.288Z,482.00
2023-04-27T01:27:31.267Z,483.00
2023-04-27T01:28:31.282Z,483.00
2023-04-27T01:29:31.248Z,483.00
2023-04-27T01:30:31.246Z,485.00
2023-04-27T01:31:31.283Z,484.00
2023-04-27T01:32:31.293Z,483.00
2023-04-27T01:33:31.284Z,482.00
2023-04-27T01:34:31.289Z,481.00
2023-04-27T01:35:31.275Z,478.00
2023-04-27T01:36:31.246Z,478.00
2023-04-27T01:37:31.246Z,475.00
2023-04-27T01:38:31.223Z,475.00
2023-04-27T01:39:31.216Z,475.00
2023-04-27T01:40:31.227Z,473.00
2023-04-27T01:41:31.192Z,474.00
2023-04-27T01:42:31.181Z,475.00
2023-04-27T01:43:31.190Z,477.00
2023-04-27T01:44:31.197Z,475.00
2023-04-27T01:45:31.275Z,473.00
2023-04-27T01:46:31.367Z,476.00
2023-04-27T01:47:31.393Z,478.00
2023-04-27T01:48:31.371Z,478.00
2023-04-27T01:49:31.429Z,478.00
2023-04-27T01:50:31.457Z,478.00
2023-04-27T01:51:31.483Z,477.00
2023-04-27T01:52:31.516Z,478.00
2023-04-27T01:53:31.563Z,475.00
2023-04-27T01:54:31.610Z,476.00
2023-04-27T01:55:31.669Z,475.00
2023-04-27T01:56:31.731Z,475.00
2023-04-27T01:57:31.778Z,473.00
2023-04-27T01:58:31.844Z,471.00
2023-04-27T01:59:31.904Z,470.00
2023-04-27T02:00:31.968Z,472.00
2023-04-27T02:01:32.055Z,471.00
2023-04-27T02:02:32.148Z,469.00
2023-04-27T02:03:32.276Z,470.00
2023-04-27T02:04:32.229Z,470.00
2023-04-27T02:05:32.237Z,469.00
2023-04-27T02:06:32.275Z,470.00
2023-04-27T02:07:32.324Z,472.00
2023-04-27T02:08:32.360Z,472.00
2023-04-27T02:09:32.363Z,469.00
2023-04-27T02:10:32.377Z,468.00
2023-04-27T02:11:32.397Z,466.00
2023-04-27T02:12:32.428Z,466.00
2023-04-27T02:13:32.475Z,465.00
2023-04-27T02:14:32.529Z,467.00
2023-04-27T02:15:32.603Z,468.00
2023-04-27T02:16:32.671Z,468.00
2023-04-27T02:17:32.706Z,468.00
2023-04-27T02:18:32.716Z,466.00
2023-04-27T02:19:32.747Z,465.00
2023-04-27T02:20:32.812Z,465.00
2023-04-27T02:21:32.835Z,465.00
2023-04-27T02:22:32.889Z,465.00
2023-04-27T02:23:32.958Z,465.00
2023-04-27T02:24:32.965Z,461.00
2023-04-27T02:25:33.068Z,461.00
2023-04-27T02:26:33.086Z,464.00
2023-04-27T02:27:33.190Z,464.00
2023-04-27T02:28:33.242Z,465.00
2023-04-27T02:29:33.239Z,464.00
2023-04-27T02:30:33.274Z,470.00
2023-04-27T02:31:33.347Z,472.00
2023-04-27T02:32:33.399Z,471.00
2023-04-27T02:33:33.425Z,471.00
2023-04-27T02:34:33.474Z,469.00
2023-04-27T02:35:33.499Z,470.00
2023-04-27T02:36:33.559Z,467.00
2023-04-27T02:37:33.505Z,465.00
2023-04-27T02:38:33.506Z,463.00
2023-04-27T02:39:33.507Z,462.00
2023-04-27T02:40:33.534Z,462.00
2023-04-27T02:41:33.551Z,463.00
2023-04-27T02:42:33.581Z,466.00
2023-04-27T02:43:33.584Z,468.00
2023-04-27T02:44:33.605Z,468.00
2023-04-27T02:45:33.600Z,468.00
2023-04-27T02:46:33.612Z,468.00
2023-04-27T02:47:33.622Z,470.00
2023-04-27T02:48:33.591Z,473.00
2023-04-27T02:49:33.602Z,471.00
2023-04-27T02:50:33.660Z,471.00
2023-04-27T02:51:33.674Z,473.00
2023-04-27T02:52:33.736Z,472.00
2023-04-27T02:53:33.769Z,471.00
2023-04-27T02:54:33.835Z,472.00
2023-04-27T02:55:33.869Z,471.00
2023-04-27T02:56:33.831Z,470.00
2023-04-27T02:57:33.815Z,471.00
2023-04-27T02:58:33.806Z,468.00
2023-04-27T02:59:33.804Z,469.00
2023-04-27T03:00:33.809Z,467.00
2023-04-27T03:01:33.817Z,467.00
2023-04-27T03:02:33.873Z,468.00
2023-04-27T03:03:33.909Z,468.00
2023-04-27T03:04:33.784Z,468.00
2023-04-27T03:05:33.745Z,469.00
2023-04-27T03:06:33.778Z,471.00
2023-04-27T03:07:33.791Z,472.00
2023-04-27T03:08:33.846Z,471.00
2023-04-27T03:09:33.872Z,472.00
2023-04-27T03:10:33.938Z,469.00
2023-04-27T03:11:35.307Z,468.00
2023-04-27T03:12:33.999Z,466.00
2023-04-27T03:13:34.032Z,466.00
2023-04-27T03:14:34.050Z,466.00
2023-04-27T03:15:34.050Z,469.00
2023-04-27T03:16:34.112Z,470.00
2023-04-27T03:17:34.111Z,470.00
2023-04-27T03:18:34.122Z,472.00
2023-04-27T03:19:34.145Z,473.00
2023-04-27T03:20:34.171Z,469.00
2023-04-27T03:21:34.196Z,471.00
2023-04-27T03:22:34.216Z,472.00
2023-04-27T03:23:34.226Z,471.00
2023-04-27T03:24:34.231Z,468.00
2023-04-27T03:25:34.238Z,470.00
2023-04-27T03:26:34.258Z,471.00
2023-04-27T03:27:34.290Z,470.00
2023-04-27T03:28:34.334Z,469.00
2023-04-27T03:29:34.506Z,470.00
2023-04-27T03:30:34.414Z,468.00
2023-04-27T03:31:34.477Z,466.00
2023-04-27T03:32:34.489Z,465.00
2023-04-27T03:33:34.470Z,464.00
2023-04-27T03:34:34.483Z,465.00
2023-04-27T03:35:34.531Z,466.00
2023-04-27T03:36:34.543Z,466.00
2023-04-27T03:37:34.558Z,468.00
2023-04-27T03:38:34.593Z,469.00
2023-04-27T03:39:34.633Z,471.00
2023-04-27T03:40:34.669Z,471.00
2023-04-27T03:41:34.687Z,471.00
2023-04-27T03:42:34.687Z,471.00
2023-04-27T03:43:34.696Z,474.00
2023-04-27T03:44:34.708Z,474.00
2023-04-27T03:45:34.745Z,474.00
2023-04-27T03:46:35.054Z,472.00
2023-04-27T03:47:34.878Z,465.00
2023-04-27T03:48:34.872Z,467.00
2023-04-27T03:49:34.917Z,470.00
2023-04-27T03:50:34.991Z,470.00
2023-04-27T03:51:35.013Z,470.00
2023-04-27T03:52:35.027Z,469.00
2023-04-27T03:53:35.023Z,470.00
2023-04-27T03:54:35.076Z,467.00
2023-04-27T03:55:35.124Z,465.00
2023-04-27T03:56:35.130Z,465.00
2023-04-27T03:57:35.138Z,466.00
2023-04-27T03:58:35.148Z,467.00
2023-04-27T03:59:35.161Z,467.00
2023-04-27T04:00:35.165Z,466.00
2023-04-27T04:01:35.737Z,463.00
2023-04-27T04:02:35.220Z,465.00
2023-04-27T04:03:35.357Z,464.00
2023-04-27T04:04:35.377Z,462.00
2023-04-27T04:05:35.207Z,464.00
2023-04-27T04:06:35.199Z,464.00
2023-04-27T04:07:35.169Z,462.00
2023-04-27T04:08:35.176Z,459.00
2023-04-27T04:09:35.170Z,458.00
2023-04-27T04:10:35.178Z,460.00
2023-04-27T04:11:35.164Z,460.00
2023-04-27T04:12:35.164Z,459.00
2023-04-27T04:13:35.176Z,460.00
2023-04-27T04:14:35.153Z,463.00
2023-04-27T04:15:35.182Z,461.00
2023-04-27T04:16:35.177Z,462.00
2023-04-27T04:17:35.236Z,462.00
2023-04-27T04:18:35.241Z,459.00
2023-04-27T04:19:35.281Z,459.00
2023-04-27T04:20:35.315Z,455.00
2023-04-27T04:21:35.325Z,457.00
2023-04-27T04:22:35.352Z,457.00
2023-04-27T04:23:35.360Z,456.00
2023-04-27T04:24:35.401Z,454.00
2023-04-27T04:25:35.415Z,454.00
2023-04-27T04:26:35.454Z,456.00
2023-04-27T04:27:35.439Z,454.00
2023-04-27T04:28:35.416Z,455.00
2023-04-27T04:29:35.449Z,453.00
2023-04-27T04:30:35.440Z,452.00
2023-04-27T04:31:35.437Z,453.00
2023-04-27T04:32:35.445Z,452.00
2023-04-27T04:33:35.492Z,451.00
2023-04-27T04:34:35.380Z,452.00
2023-04-27T04:35:35.358Z,454.00
2023-04-27T04:36:35.348Z,456.00
2023-04-27T04:37:35.378Z,452.00
2023-04-27T04:38:35.325Z,453.00
2023-04-27T04:39:35.331Z,454.00
2023-04-27T04:40:35.317Z,453.00
2023-04-27T04:41:35.294Z,453.00
2023-04-27T04:42:35.293Z,456.00
2023-04-27T04:43:35.296Z,456.00
2023-04-27T04:44:35.276Z,455.00
2023-04-27T04:45:35.270Z,456.00
2023-04-27T04:46:35.310Z,455.00
2023-04-27T04:47:35.320Z,458.00
2023-04-27T04:48:35.237Z,456.00
2023-04-27T04:49:35.233Z,456.00
2023-04-27T04:50:35.249Z,457.00
2023-04-27T04:51:35.238Z,456.00
2023-04-27T04:52:35.244Z,455.00
2023-04-27T04:53:35.247Z,454.00
2023-04-27T04:54:35.222Z,455.00
2023-04-27T04:55:35.237Z,453.00
2023-04-27T04:56:35.249Z,453.00
2023-04-27T04:57:35.245Z,453.00
2023-04-27T04:58:35.314Z,455.00
2023-04-27T04:59:35.242Z,451.00
2023-04-27T05:00:35.227Z,450.00
2023-04-27T05:01:35.253Z,451.00
2023-04-27T05:02:35.350Z,452.00
2023-04-27T05:03:35.385Z,455.00
2023-04-27T05:04:35.422Z,454.00
2023-04-27T05:05:35.199Z,454.00
2023-04-27T05:06:35.187Z,453.00
2023-04-27T05:07:35.162Z,453.00
2023-04-27T05:08:35.142Z,455.00
2023-04-27T05:09:35.152Z,455.00
2023-04-27T05:10:35.138Z,454.00
2023-04-27T05:11:35.144Z,453.00
2023-04-27T05:12:35.128Z,453.00
2023-04-27T05:13:35.112Z,454.00
2023-04-27T05:14:35.119Z,452.00
2023-04-27T05:15:35.100Z,451.00
2023-04-27T05:16:35.222Z,451.00
2023-04-27T05:17:35.130Z,451.00
2023-04-27T05:18:35.074Z,448.00
2023-04-27T05:19:35.061Z,447.00
2023-04-27T05:20:35.205Z,447.00
2023-04-27T05:21:35.087Z,451.00
2023-04-27T05:22:35.091Z,450.00
2023-04-27T05:23:35.067Z,450.00
2023-04-27T05:24:35.064Z,447.00
2023-04-27T05:25:35.077Z,446.00
2023-04-27T05:26:35.052Z,447.00
2023-04-27T05:27:35.065Z,450.00
2023-04-27T05:28:35.035Z,448.00
2023-04-27T05:29:35.034Z,444.00
2023-04-27T05:30:35.028Z,443.00
2023-04-27T05:31:35.091Z,445.00
2023-04-27T05:32:35.044Z,445.00
2023-04-27T05:33:35.042Z,446.00
2023-04-27T05:34:34.996Z,445.00
2023-04-27T05:35:35.118Z,446.00
2023-04-27T05:36:35.083Z,486.00
2023-04-27T05:37:34.985Z,514.00
2023-04-27T05:38:35.006Z,555.00
2023-04-27T05:39:34.979Z,562.00
2023-04-27T05:40:35.095Z,571.00
2023-04-27T05:41:34.939Z,579.00
2023-04-27T05:42:34.929Z,615.00
2023-04-27T05:43:34.928Z,657.00
2023-04-27T05:44:34.977Z,697.00
2023-04-27T05:45:35.088Z,705.00
2023-04-27T05:46:37.922Z,709.00
2023-04-27T05:47:35.123Z,735.00
2023-04-27T05:48:35.110Z,764.00
2023-04-27T05:49:35.081Z,788.00
2023-04-27T05:50:35.094Z,787.00
2023-04-27T05:51:35.067Z,750.00
2023-04-27T05:52:36.384Z,741.00
2023-04-27T05:53:35.008Z,718.00
2023-04-27T05:54:35.016Z,694.00
2023-04-27T05:55:35.596Z,712.00
2023-04-27T05:56:35.008Z,725.00
2023-04-27T05:57:35.009Z,728.00
2023-04-27T05:58:35.062Z,773.00
2023-04-27T05:59:35.010Z,773.00
2023-04-27T06:00:35.012Z,830.00
2023-04-27T06:01:35.001Z,821.00
2023-04-27T06:02:35.135Z,823.00
2023-04-27T06:03:35.190Z,843.00
2023-04-27T06:04:35.023Z,854.00
2023-04-27T06:05:35.126Z,861.00
2023-04-27T06:06:34.975Z,869.00
2023-04-27T06:07:34.970Z,878.00
2023-04-27T06:08:34.946Z,900.00
2023-04-27T06:09:34.937Z,909.00
2023-04-27T06:10:34.959Z,922.00
2023-04-27T06:11:34.937Z,956.00
2023-04-27T06:12:34.917Z,976.00
2023-04-27T06:13:34.913Z,990.00
2023-04-27T06:14:34.935Z,993.00
2023-04-27T06:15:34.912Z,997.00
2023-04-27T06:16:35.241Z,1012.00
2023-04-27T06:17:34.925Z,1038.00
2023-04-27T06:18:34.949Z,1054.00
2023-04-27T06:19:34.901Z,1070.00
2023-04-27T06:20:34.990Z,1085.00
2023-04-27T06:21:34.820Z,1101.00
2023-04-27T06:22:34.837Z,1118.00
2023-04-27T06:23:34.796Z,1136.00
2023-04-27T06:24:34.803Z,1151.00
2023-04-27T06:25:34.829Z,1167.00
2023-04-27T06:26:34.909Z,1204.00
2023-04-27T06:27:34.766Z,1217.00
2023-04-27T06:28:34.771Z,1221.00
2023-04-27T06:29:34.745Z,1227.00
2023-04-27T06:30:35.005Z,1241.00
2023-04-27T06:31:34.782Z,1265.00
2023-04-27T06:32:34.712Z,1283.00
2023-04-27T06:33:34.719Z,1295.00
2023-04-27T06:34:34.676Z,1333.00
2023-04-27T06:35:34.677Z,1333.00
2023-04-27T06:36:34.647Z,1339.00
2023-04-27T06:37:34.641Z,1346.00
2023-04-27T06:38:34.608Z,1370.00
2023-04-27T06:39:34.599Z,1394.00
2023-04-27T06:40:34.658Z,1405.00
2023-04-27T06:41:34.561Z,1423.00
2023-04-27T06:42:34.537Z,1443.00
2023-04-27T06:43:34.519Z,1163.00
2023-04-27T06:44:34.514Z,1174.00
2023-04-27T06:45:34.517Z,1177.00
2023-04-27T06:46:34.599Z,1096.00
2023-04-27T06:47:34.499Z,1172.00
2023-04-27T06:48:34.490Z,1186.00
2023-04-27T06:49:34.473Z,1183.00
2023-04-27T06:50:34.477Z,1189.00
2023-04-27T06:51:34.445Z,1200.00
2023-04-27T06:52:34.446Z,1212.00
2023-04-27T06:53:34.506Z,1227.00
2023-04-27T06:54:34.438Z,1243.00
2023-04-27T06:55:34.405Z,1245.00
2023-04-27T06:56:34.436Z,1254.00
2023-04-27T06:57:34.458Z,1298.00
2023-04-27T06:58:34.369Z,1311.00
2023-04-27T06:59:34.345Z,1326.00
2023-04-27T07:00:34.355Z,1334.00
2023-04-27T07:01:34.363Z,1345.00
2023-04-27T07:02:34.430Z,1353.00
2023-04-27T07:03:34.431Z,1368.00
2023-04-27T07:04:34.320Z,1377.00
2023-04-27T07:05:34.261Z,1385.00
2023-04-27T07:06:34.321Z,1394.00
2023-04-27T07:07:34.424Z,1408.00
2023-04-27T07:08:34.245Z,1408.00
2023-04-27T07:09:34.395Z,1416.00
2023-04-27T07:10:34.205Z,1427.00
2023-04-27T07:11:34.187Z,1437.00
2023-04-27T07:12:34.184Z,1446.00
2023-04-27T07:13:34.162Z,1461.00
2023-04-27T07:14:34.123Z,1462.00
2023-04-27T07:15:34.116Z,1468.00
2023-04-27T07:16:34.112Z,1478.00
2023-04-27T07:17:34.160Z,1480.00
2023-04-27T07:18:34.076Z,1486.00
2023-04-27T07:19:34.090Z,1494.00
2023-04-27T07:20:34.058Z,1508.00
2023-04-27T07:21:34.042Z,1523.00
2023-04-27T07:22:34.021Z,1546.00
2023-04-27T07:23:34.004Z,1565.00
2023-04-27T07:24:34.001Z,1582.00
2023-04-27T07:25:34.072Z,1590.00
2023-04-27T07:26:34.097Z,1615.00
2023-04-27T07:27:33.979Z,1623.00
2023-04-27T07:28:33.946Z,1625.00
2023-04-27T07:29:34.300Z,1631.00
2023-04-27T07:30:33.895Z,1641.00
2023-04-27T07:31:33.946Z,1648.00
2023-04-27T07:32:33.949Z,1660.00
2023-04-27T07:33:33.910Z,1668.00
2023-04-27T07:34:49.107Z,1678.00
2023-04-27T07:35:34.935Z,1681.00
2023-04-27T07:36:33.914Z,1683.00
2023-04-27T07:37:33.890Z,1684.00
2023-04-27T07:38:33.876Z,1697.00
2023-04-27T07:39:33.858Z,1524.00
2023-04-27T07:40:33.885Z,1286.00
2023-04-27T07:41:33.845Z,1071.00
2023-04-27T07:42:33.806Z,1062.00
2023-04-27T07:43:33.858Z,1058.00
2023-04-27T07:44:33.771Z,1030.00
2023-04-27T07:45:33.894Z,938.00
2023-04-27T07:46:33.808Z,882.00
2023-04-27T07:47:33.732Z,881.00
2023-04-27T07:48:33.765Z,867.00
2023-04-27T07:49:33.694Z,850.00
2023-04-27T07:50:33.682Z,848.00
2023-04-27T07:51:33.670Z,840.00
2023-04-27T07:52:33.659Z,783.00
2023-04-27T07:53:33.628Z,776.00
2023-04-27T07:54:33.615Z,707.00
2023-04-27T07:55:33.605Z,699.00
2023-04-27T07:56:33.679Z,700.00
2023-04-27T07:57:33.620Z,696.00
2023-04-27T07:58:33.607Z,693.00
2023-04-27T07:59:33.587Z,683.00
2023-04-27T08:00:33.545Z,674.00
2023-04-27T08:01:33.544Z,671.00
2023-04-27T08:02:33.666Z,653.00
2023-04-27T08:03:33.697Z,625.00
2023-04-27T08:04:33.861Z,621.00
2023-04-27T08:05:33.673Z,614.00
2023-04-27T08:06:34.189Z,612.00
2023-04-27T08:07:35.906Z,610.00
2023-04-27T08:08:33.472Z,605.00
2023-04-27T08:09:33.470Z,597.00
2023-04-27T08:10:33.465Z,587.00
2023-04-27T08:11:33.468Z,580.00
2023-04-27T08:12:33.442Z,576.00
2023-04-27T08:13:33.447Z,568.00
2023-04-27T08:14:33.453Z,560.00
2023-04-27T08:15:33.445Z,553.00
2023-04-27T08:16:33.510Z,551.00
2023-04-27T08:17:33.483Z,547.00
2023-04-27T08:18:33.421Z,543.00
2023-04-27T08:19:33.426Z,540.00
2023-04-27T08:20:33.422Z,525.00
2023-04-27T08:21:33.393Z,512.00
2023-04-27T08:22:33.440Z,507.00
2023-04-27T08:23:33.382Z,501.00
2023-04-27T08:24:33.398Z,496.00
2023-04-27T08:25:33.435Z,495.00
2023-04-27T08:26:33.488Z,494.00
2023-04-27T08:27:33.518Z,491.00
2023-04-27T08:28:33.578Z,490.00
2023-04-27T08:29:33.852Z,486.00
2023-04-27T08:30:33.690Z,483.00
2023-04-27T08:31:33.813Z,493.00
2023-04-27T08:32:33.788Z,527.00
2023-04-27T08:33:33.892Z,538.00
2023-04-27T08:34:33.854Z,558.00
2023-04-27T08:35:33.887Z,592.00
2023-04-27T08:36:34.009Z,576.00
2023-04-27T08:37:34.022Z,579.00
2023-04-27T08:38:34.084Z,570.00
2023-04-27T08:39:34.153Z,571.00
2023-04-27T08:40:34.226Z,572.00
2023-04-27T08:41:34.284Z,561.00
2023-04-27T08:42:34.358Z,565.00
2023-04-27T08:43:34.467Z,562.00
2023-04-27T08:44:34.464Z,557.00
2023-04-27T08:45:34.531Z,537.00
2023-04-27T08:46:34.579Z,619.00
2023-04-27T08:47:42.863Z,653.00
2023-04-27T08:48:35.560Z,686.00
2023-04-27T08:49:34.647Z,723.00
2023-04-27T08:50:34.538Z,751.00
2023-04-27T08:51:34.549Z,762.00
2023-04-27T08:52:34.517Z,786.00
2023-04-27T08:53:34.516Z,797.00
2023-04-27T08:54:34.501Z,799.00
2023-04-27T08:55:34.521Z,788.00
2023-04-27T08:56:34.524Z,777.00
2023-04-27T08:57:34.617Z,772.00
2023-04-27T08:58:34.640Z,774.00
2023-04-27T08:59:34.706Z,775.00
2023-04-27T09:00:34.768Z,775.00
2023-04-27T09:01:34.903Z,776.00
2023-04-27T09:02:35.067Z,784.00
2023-04-27T09:03:34.977Z,794.00
2023-04-27T09:04:34.863Z,802.00
2023-04-27T09:05:34.781Z,826.00
2023-04-27T09:06:34.874Z,915.00
2023-04-27T09:07:34.830Z,921.00
2023-04-27T09:08:34.795Z,939.00
2023-04-27T09:09:34.808Z,971.00
2023-04-27T09:10:34.828Z,984.00
2023-04-27T09:11:35.217Z,991.00
2023-04-27T09:12:34.899Z,1002.00
2023-04-27T09:13:34.900Z,1002.00
2023-04-27T09:14:34.970Z,1013.00
2023-04-27T09:15:34.964Z,1045.00
2023-04-27T09:16:35.069Z,1051.00
2023-04-27T09:17:35.053Z,1047.00
2023-04-27T09:18:35.082Z,1045.00
2023-04-27T09:19:35.174Z,1054.00
2023-04-27T09:20:35.142Z,1057.00
2023-04-27T09:21:35.173Z,1066.00
2023-04-27T09:22:35.173Z,1072.00
2023-04-27T09:23:35.194Z,1085.00
2023-04-27T09:24:35.202Z,1085.00
2023-04-27T09:25:36.181Z,1085.00
2023-04-27T09:26:35.674Z,1087.00
2023-04-27T09:27:35.259Z,1058.00
2023-04-27T09:28:35.386Z,1062.00
2023-04-27T09:29:35.369Z,1073.00
2023-04-27T09:30:35.270Z,1061.00
2023-04-27T09:31:35.326Z,1062.00
2023-04-27T09:32:35.299Z,1058.00
2023-04-27T09:33:35.244Z,1049.00
2023-04-27T09:34:35.237Z,1046.00
2023-04-27T09:35:35.240Z,1044.00
2023-04-27T09:36:35.255Z,1043.00
2023-04-27T09:37:35.210Z,984.00
2023-04-27T09:38:35.183Z,1022.00
2023-04-27T09:39:35.260Z,1024.00
2023-04-27T09:40:35.165Z,1043.00
2023-04-27T09:41:35.287Z,1032.00
2023-04-27T09:42:35.149Z,1050.00
2023-04-27T09:43:35.137Z,913.00
2023-04-27T09:44:35.122Z,924.00
2023-04-27T09:45:35.194Z,880.00
2023-04-27T09:46:35.111Z,982.00
2023-04-27T09:47:35.175Z,986.00
2023-04-27T09:48:35.091Z,988.00
2023-04-27T09:49:35.150Z,988.00
2023-04-27T09:50:36.727Z,1004.00
2023-04-27T09:51:35.031Z,1007.00
2023-04-27T09:52:35.016Z,988.00
2023-04-27T09:53:35.022Z,984.00
2023-04-27T09:54:34.976Z,992.00
2023-04-27T09:55:35.055Z,1058.00
2023-04-27T09:56:34.949Z,1045.00
2023-04-27T09:57:34.942Z,1052.00
2023-04-27T09:58:34.941Z,1054.00
2023-04-27T09:59:35.011Z,1062.00
2023-04-27T10:00:34.949Z,1071.00
2023-04-27T10:01:37.281Z,1074.00
2023-04-27T10:02:46.179Z,1093.00
2023-04-27T10:03:36.183Z,1120.00
2023-04-27T10:04:35.163Z,1130.00
2023-04-27T10:05:35.050Z,1129.00
2023-04-27T10:06:35.053Z,1135.00
2023-04-27T10:07:35.000Z,1204.00
2023-04-27T10:08:34.996Z,1198.00
2023-04-27T10:09:34.990Z,1195.00
2023-04-27T10:10:34.969Z,1195.00
2023-04-27T10:11:34.958Z,1203.00
2023-04-27T10:12:34.968Z,1228.00
2023-04-27T10:13:34.933Z,1214.00
2023-04-27T10:14:34.931Z,1202.00
2023-04-27T10:15:34.907Z,1200.00
2023-04-27T10:16:35.059Z,1202.00
2023-04-27T10:17:34.988Z,1209.00
2023-04-27T10:18:34.989Z,1233.00
2023-04-27T10:19:35.023Z,1268.00
2023-04-27T10:20:35.094Z,1275.00
2023-04-27T10:21:35.098Z,1280.00
2023-04-27T10:22:36.045Z,1290.00
2023-04-27T10:23:35.194Z,1301.00
2023-04-27T10:24:35.296Z,1313.00
2023-04-27T10:25:35.308Z,1323.00
2023-04-27T10:26:37.294Z,1339.00
2023-04-27T10:27:35.336Z,1372.00
2023-04-27T10:28:35.334Z,1385.00
2023-04-27T10:29:35.323Z,1389.00
2023-04-27T10:30:35.321Z,1398.00
2023-04-27T10:31:35.313Z,1413.00
2023-04-27T10:32:35.286Z,1434.00
2023-04-27T10:33:35.245Z,1475.00
2023-04-27T10:34:35.323Z,1471.00
2023-04-27T10:35:35.272Z,1474.00
2023-04-27T10:36:35.286Z,1486.00
2023-04-27T10:37:35.163Z,1524.00
2023-04-27T10:38:35.167Z,1513.00
2023-04-27T10:39:47.039Z,1526.00
2023-04-27T10:40:36.128Z,1532.00
2023-04-27T10:41:35.116Z,1461.00
2023-04-27T10:42:35.106Z,1371.00
2023-04-27T10:43:35.073Z,1459.00
2023-04-27T10:44:35.046Z,1512.00
2023-04-27T10:45:34.996Z,1531.00
2023-04-27T10:46:35.092Z,1535.00
2023-04-27T10:47:35.040Z,1540.00
2023-04-27T10:48:34.935Z,1556.00
2023-04-27T10:49:34.924Z,1570.00
2023-04-27T10:50:34.925Z,1586.00
2023-04-27T10:51:34.901Z,1601.00
2023-04-27T10:52:34.883Z,1620.00
2023-04-27T10:53:34.847Z,1642.00
2023-04-27T10:54:34.810Z,1653.00
2023-04-27T10:55:34.809Z,1656.00
2023-04-27T10:56:34.780Z,1659.00
2023-04-27T10:57:34.750Z,1671.00
2023-04-27T10:58:45.261Z,1692.00
2023-04-27T10:59:35.705Z,1722.00
2023-04-27T11:00:34.685Z,1732.00
2023-04-27T11:01:34.754Z,1734.00
2023-04-27T11:02:34.703Z,1740.00
2023-04-27T11:03:34.745Z,1752.00
2023-04-27T11:04:34.605Z,1763.00
2023-04-27T11:05:34.669Z,1774.00
2023-04-27T11:06:34.569Z,1782.00
2023-04-27T11:07:34.541Z,1791.00
2023-04-27T11:08:34.486Z,1802.00
2023-04-27T11:09:34.481Z,1817.00
2023-04-27T11:10:34.612Z,1841.00
2023-04-27T11:11:34.485Z,1841.00
2023-04-27T11:12:34.468Z,1843.00
2023-04-27T11:13:34.457Z,1843.00
2023-04-27T11:14:35.240Z,1848.00
2023-04-27T11:15:34.378Z,1857.00
2023-04-27T11:16:34.436Z,1868.00
2023-04-27T11:17:34.398Z,1879.00
2023-04-27T11:18:34.352Z,1883.00
2023-04-27T11:19:34.294Z,1898.00
2023-04-27T11:20:34.271Z,1912.00
2023-04-27T11:21:34.269Z,1916.00
2023-04-27T11:22:34.241Z,1920.00
2023-04-27T11:23:34.260Z,1931.00
2023-04-27T11:24:34.204Z,1940.00
2023-04-27T11:25:34.188Z,1944.00
2023-04-27T11:26:34.194Z,1943.00
2023-04-27T11:27:34.139Z,1944.00
2023-04-27T11:28:34.207Z,1983.00
2023-04-27T11:29:34.665Z,1977.00
2023-04-27T11:30:34.073Z,1679.00
2023-04-27T11:31:34.070Z,1857.00
2023-04-27T11:32:34.060Z,1852.00
2023-04-27T11:33:35.840Z,1698.00
2023-04-27T11:34:33.994Z,1682.00
2023-04-27T11:35:33.960Z,1657.00
2023-04-27T11:36:33.938Z,1638.00
2023-04-27T11:37:34.038Z,1578.00
2023-04-27T11:38:34.012Z,1567.00
2023-04-27T11:39:33.954Z,1555.00
2023-04-27T11:40:33.993Z,1551.00
2023-04-27T11:41:34.025Z,1543.00
2023-04-27T11:42:34.036Z,1539.00
2023-04-27T11:43:34.095Z,1528.00
2023-04-27T11:44:34.097Z,1516.00
2023-04-27T11:45:34.206Z,1503.00
2023-04-27T11:46:34.198Z,1493.00
2023-04-27T11:47:34.207Z,1483.00
2023-04-27T11:48:34.208Z,1476.00
2023-04-27T11:49:34.245Z,1467.00
2023-04-27T11:50:34.278Z,1453.00
2023-04-27T11:51:34.310Z,1440.00
2023-04-27T11:52:34.360Z,1433.00
2023-04-27T11:53:34.390Z,1424.00
2023-04-27T11:54:34.420Z,1399.00
2023-04-27T11:55:34.456Z,1395.00
2023-04-27T11:56:34.528Z,1391.00
2023-04-27T11:57:34.556Z,1382.00
2023-04-27T11:58:34.592Z,1375.00
2023-04-27T11:59:34.632Z,1366.00
2023-04-27T12:00:34.685Z,1366.00
2023-04-27T12:01:38.088Z,1355.00
2023-04-27T12:02:34.836Z,1352.00
2023-04-27T12:03:35.457Z,1349.00
2023-04-27T12:04:34.853Z,1343.00
2023-04-27T12:05:34.722Z,1329.00
2023-04-27T12:06:34.696Z,1327.00
2023-04-27T12:07:34.645Z,1327.00
2023-04-27T12:08:34.582Z,1323.00
2023-04-27T12:09:34.548Z,1313.00
2023-04-27T12:10:34.533Z,1305.00
2023-04-27T12:11:34.521Z,1302.00
2023-04-27T12:12:34.488Z,1291.00
2023-04-27T12:13:34.483Z,1280.00
2023-04-27T12:14:34.464Z,1277.00
2023-04-27T12:15:34.461Z,1273.00
2023-04-27T12:16:34.464Z,1271.00
2023-04-27T12:17:34.449Z,1257.00
2023-04-27T12:18:34.383Z,1251.00
2023-04-27T12:19:34.371Z,1242.00
2023-04-27T12:20:34.363Z,1231.00